Time;durP1;ratioP1;P1;durP2;ratioP2;P2;SDS_P1;SDS_P2;PMS_P1;PMS_P2;Temp;Humidity;BMP_temperature;BMP_pressure;BME280_temperature;BME280_humidity;BME280_pressure;Samples;Min_cycle;Max_cycle;Signal;HPM_P1;HPM_P2
2023/05/25 00:02:14;;;;;;;15.00;5.30;;;;;;;;;;4917512;28;20389;-65
2023/05/25 00:04:47;;;;;;;19.08;5.57;;;;;;;;;;4957140;28;20061;-66
2023/05/25 00:07:18;;;;;;;10.10;5.40;;;;;;;;;;4989680;28;20526;-65
2023/05/25 00:09:48;;;;;;;13.82;5.75;;;;;;;;;;4952427;28;20050;-65
2023/05/25 00:12:19;;;;;;;13.77;6.25;;;;;;;;;;5009186;28;20061;-65
2023/05/25 00:14:51;;;;;;;16.90;6.72;;;;;;;;;;4976657;28;20050;-65
2023/05/25 00:17:24;;;;;;;16.33;6.60;;;;;;;;;;4957432;28;20185;-65
2023/05/25 00:19:56;;;;;;;19.65;7.20;;;;;;;;;;5009154;28;20046;-65
2023/05/25 00:22:27;;;;;;;16.40;6.85;;;;;;;;;;5008920;28;20056;-66
2023/05/25 00:24:58;;;;;;;16.83;8.27;;;;;;;;;;4977123;28;20061;-65
2023/05/25 00:27:30;;;;;;;14.88;7.00;;;;;;;;;;4960444;28;20058;-65
2023/05/25 00:30:00;;;;;;;20.25;8.05;;;;;;;;;;4883942;29;20051;-65
2023/05/25 00:32:54;;;;;;;20.42;7.25;;;;;;;;;;4931513;29;20051;-66
2023/05/25 00:35:24;;;;;;;14.05;6.28;;;;;;;;;;4899773;29;20059;-65
2023/05/25 00:38:15;;;;;;;19.30;6.68;;;;;;;;;;4918973;29;20531;-66
2023/05/25 00:40:47;;;;;;;21.73;7.38;;;;;;;;;;4912565;29;20094;-67
2023/05/25 00:43:19;;;;;;;15.05;6.90;;;;;;;;;;4931127;29;20047;-66
2023/05/25 00:45:50;;;;;;;15.43;6.53;;;;;;;;;;4915879;29;20059;-66
2023/05/25 00:48:23;;;;;;;19.42;6.85;;;;;;;;;;4935516;29;20455;-64
2023/05/25 00:50:58;;;;;;;14.35;6.47;;;;;;;;;;4934015;29;20054;-66
2023/05/25 00:53:28;;;;;;;15.45;6.75;;;;;;;;;;4915835;29;20060;-65
2023/05/25 00:56:04;;;;;;;16.85;6.43;;;;;;;;;;4915446;29;20062;-63
2023/05/25 00:58:38;;;;;;;17.58;6.57;;;;;;;;;;4899697;29;20202;-64
2023/05/25 01:01:13;;;;;;;15.43;6.25;;;;;;;;;;4883887;29;20133;-69
2023/05/25 01:03:52;;;;;;;16.65;6.97;;;;;;;;;;4931161;29;20433;-64
2023/05/25 01:06:25;;;;;;;15.13;6.60;;;;;;;;;;4909897;29;20044;-66
2023/05/25 01:09:02;;;;;;;17.10;7.63;;;;;;;;;;4927698;29;20050;-64
2023/05/25 01:11:36;;;;;;;14.25;6.65;;;;;;;;;;4871920;29;20084;-64
2023/05/25 01:14:07;;;;;;;16.95;7.15;;;;;;;;;;4845238;29;20048;-65
2023/05/25 01:16:40;;;;;;;16.25;6.70;;;;;;;;;;4863174;29;20061;-65
2023/05/25 01:19:10;;;;;;;13.52;6.90;;;;;;;;;;4853104;29;20079;-65
2023/05/25 01:22:04;;;;;;;16.00;6.78;;;;;;;;;;4882892;29;20049;-65
2023/05/25 01:25:01;;;;;;;18.83;6.68;;;;;;;;;;4893338;29;20057;-64
2023/05/25 01:27:44;;;;;;;16.10;6.57;;;;;;;;;;4919147;29;20117;-64
2023/05/25 01:30:18;;;;;;;16.45;6.93;;;;;;;;;;4911687;29;20063;-63
2023/05/25 01:33:03;;;;;;;16.75;7.07;;;;;;;;;;4910885;29;20060;-64
2023/05/25 01:35:37;;;;;;;13.63;6.18;;;;;;;;;;4911772;29;20071;-65
2023/05/25 01:38:08;;;;;;;15.70;6.55;;;;;;;;;;4895081;29;20100;-65
2023/05/25 01:40:40;;;;;;;12.13;5.80;;;;;;;;;;4874276;29;20060;-64
2023/05/25 01:43:10;;;;;;;13.68;6.32;;;;;;;;;;4873973;29;20135;-68
2023/05/25 01:46:12;;;;;;;12.30;5.93;;;;;;;;;;4874260;29;20687;-64
2023/05/25 01:48:57;;;;;;;14.95;6.20;;;;;;;;;;4871169;29;20453;-64
2023/05/25 01:52:22;;;;;;;17.77;6.43;;;;;;;;;;4883411;29;20057;-63
2023/05/25 01:55:02;;;;;;;17.42;6.57;;;;;;;;;;4800491;29;21142;-64
2023/05/25 01:57:37;;;;;;;12.43;6.28;;;;;;;;;;4800402;29;20536;-65
2023/05/25 02:00:10;;;;;;;16.00;5.90;;;;;;;;;;4818121;29;20069;-65
2023/05/25 02:02:42;;;;;;;15.35;6.35;;;;;;;;;;4819376;29;20051;-65
2023/05/25 02:05:15;;;;;;;13.25;6.55;;;;;;;;;;4758590;30;20060;-65
2023/05/25 02:07:46;;;;;;;16.70;6.97;;;;;;;;;;4766873;29;20056;-65
2023/05/25 02:10:32;;;;;;;17.98;6.22;;;;;;;;;;4773879;29;20063;-65
2023/05/25 02:13:02;;;;;;;13.85;6.00;;;;;;;;;;4755749;29;20059;-65
2023/05/25 02:15:33;;;;;;;15.13;6.07;;;;;;;;;;4785805;29;20063;-64
2023/05/25 02:18:04;;;;;;;18.13;6.05;;;;;;;;;;4749290;30;20062;-65
2023/05/25 02:20:36;;;;;;;12.15;5.75;;;;;;;;;;4785459;29;20516;-65
2023/05/25 02:23:06;;;;;;;13.35;5.63;;;;;;;;;;4780912;29;20532;-65
2023/05/25 02:25:38;;;;;;;16.85;5.95;;;;;;;;;;4791477;29;20051;-64
2023/05/25 02:28:09;;;;;;;14.55;6.57;;;;;;;;;;4821914;29;20066;-64
2023/05/25 02:30:40;;;;;;;17.80;6.35;;;;;;;;;;4812583;29;20061;-64
2023/05/25 02:33:10;;;;;;;15.27;6.30;;;;;;;;;;4848865;29;20050;-64
2023/05/25 02:35:40;;;;;;;14.38;6.68;;;;;;;;;;4794052;29;20211;-65
2023/05/25 02:38:11;;;;;;;16.98;5.90;;;;;;;;;;4857770;29;21102;-64
2023/05/25 02:40:54;;;;;;;12.40;6.07;;;;;;;;;;4839577;29;20061;-65
2023/05/25 02:43:26;;;;;;;15.55;5.95;;;;;;;;;;4839526;29;20050;-66
2023/05/25 02:45:56;;;;;;;14.15;5.78;;;;;;;;;;4837540;29;20065;-64
2023/05/25 02:48:26;;;;;;;14.63;6.07;;;;;;;;;;4803374;29;20181;-64
2023/05/25 02:50:57;;;;;;;10.85;5.68;;;;;;;;;;4813621;29;20485;-64
2023/05/25 02:53:27;;;;;;;11.82;5.80;;;;;;;;;;4821452;29;20058;-65
2023/05/25 02:56:18;;;;;;;12.77;5.75;;;;;;;;;;4839605;29;20073;-64
2023/05/25 02:58:49;;;;;;;14.38;5.97;;;;;;;;;;4839390;29;20050;-66
2023/05/25 03:01:40;;;;;;;12.70;5.55;;;;;;;;;;4821406;29;20055;-65
2023/05/25 03:04:33;;;;;;;14.82;5.53;;;;;;;;;;4787983;29;20054;-65
2023/05/25 03:07:04;;;;;;;13.93;5.32;;;;;;;;;;4792306;29;20047;-65
2023/05/25 03:09:34;;;;;;;12.93;6.15;;;;;;;;;;4802438;29;20051;-65
2023/05/25 03:12:05;;;;;;;12.93;5.70;;;;;;;;;;4823499;29;20432;-64
2023/05/25 03:14:35;;;;;;;12.02;5.65;;;;;;;;;;4839408;29;20652;-64
2023/05/25 03:17:26;;;;;;;11.13;5.47;;;;;;;;;;4839287;29;20058;-64
2023/05/25 03:19:56;;;;;;;10.55;4.82;;;;;;;;;;4775339;29;20058;-64
2023/05/25 03:22:28;;;;;;;10.95;5.40;;;;;;;;;;4819790;29;20050;-65
2023/05/25 03:24:59;;;;;;;13.90;5.47;;;;;;;;;;4784546;29;20055;-64
2023/05/25 03:27:29;;;;;;;17.25;5.93;;;;;;;;;;4787107;29;20100;-66
2023/05/25 03:30:01;;;;;;;14.88;6.07;;;;;;;;;;4813392;29;20547;-64
2023/05/25 03:32:31;;;;;;;12.45;5.90;;;;;;;;;;4820359;29;20050;-65
2023/05/25 03:35:02;;;;;;;12.57;5.65;;;;;;;;;;4820147;29;20126;-64
2023/05/25 03:37:33;;;;;;;11.68;5.35;;;;;;;;;;4801977;29;20065;-65
2023/05/25 03:40:04;;;;;;;12.73;5.47;;;;;;;;;;4754513;30;20066;-66
2023/05/25 03:42:35;;;;;;;12.35;5.72;;;;;;;;;;4759979;29;20060;-65
2023/05/25 03:45:18;;;;;;;10.70;5.22;;;;;;;;;;4752799;30;20059;-65
2023/05/25 03:47:48;;;;;;;16.40;5.50;;;;;;;;;;4778796;29;20059;-63
2023/05/25 03:50:19;;;;;;;11.68;5.28;;;;;;;;;;4796750;29;20062;-63
2023/05/25 03:52:49;;;;;;;10.70;5.25;;;;;;;;;;4783962;29;20051;-63
2023/05/25 03:55:19;;;;;;;12.00;5.15;;;;;;;;;;4740085;30;20625;-64
2023/05/25 03:57:51;;;;;;;11.32;5.13;;;;;;;;;;4701659;30;20060;-63
2023/05/25 04:00:35;;;;;;;13.43;5.57;;;;;;;;;;4730854;30;20082;-64
2023/05/25 04:03:26;;;;;;;9.30;4.80;;;;;;;;;;4726959;30;20061;-63
2023/05/25 04:05:57;;;;;;;13.48;5.35;;;;;;;;;;4759289;30;20064;-63
2023/05/25 04:08:28;;;;;;;13.68;5.38;;;;;;;;;;4765766;29;20075;-63
2023/05/25 04:10:59;;;;;;;12.60;5.75;;;;;;;;;;4762856;30;20072;-64
2023/05/25 04:13:34;;;;;;;17.88;5.32;;;;;;;;;;4780237;29;20519;-64
2023/05/25 04:16:06;;;;;;;14.60;5.35;;;;;;;;;;4750818;30;20170;-63
2023/05/25 04:18:39;;;;;;;14.73;5.60;;;;;;;;;;4765770;30;20063;-64
2023/05/25 04:21:09;;;;;;;12.65;5.95;;;;;;;;;;4750134;30;20055;-63
2023/05/25 04:23:41;;;;;;;14.73;5.90;;;;;;;;;;4793175;29;20531;-63
2023/05/25 04:26:14;;;;;;;13.93;6.13;;;;;;;;;;4815782;29;20050;-63
2023/05/25 04:28:47;;;;;;;14.30;5.72;;;;;;;;;;4783139;30;20055;-63
2023/05/25 04:31:43;;;;;;;12.35;5.88;;;;;;;;;;4801077;29;20062;-64
2023/05/25 04:34:13;;;;;;;13.45;5.53;;;;;;;;;;4804381;29;20084;-64
2023/05/25 04:37:03;;;;;;;;;;;;;;;;;;4833195;29;20062;-63
2023/05/25 04:39:34;;;;;;;13.10;5.55;;;;;;;;;;4855899;29;20400;-63
2023/05/25 04:42:05;;;;;;;15.25;5.30;;;;;;;;;;4855781;29;20050;-63
2023/05/25 04:44:36;;;;;;;13.40;5.47;;;;;;;;;;4855889;29;20053;-63
2023/05/25 04:47:07;;;;;;;12.88;6.00;;;;;;;;;;4836929;29;20054;-63
2023/05/25 04:49:37;;;;;;;10.73;4.82;;;;;;;;;;4837735;29;20180;-63
2023/05/25 04:52:08;;;;;;;12.88;5.40;;;;;;;;;;4806547;29;20077;-64
2023/05/25 04:54:40;;;;;;;13.00;5.45;;;;;;;;;;4804146;29;20061;-64
2023/05/25 04:57:23;;;;;;;12.45;5.43;;;;;;;;;;4800758;29;20061;-63
2023/05/25 04:59:54;;;;;;;10.23;5.10;;;;;;;;;;4815232;29;20063;-64
2023/05/25 05:02:24;;;;;;;14.57;5.22;;;;;;;;;;4807194;29;20102;-65
2023/05/25 05:04:55;;;;;;;11.18;5.13;;;;;;;;;;4798700;29;20412;-64
2023/05/25 05:07:25;;;;;;;11.77;5.28;;;;;;;;;;4799958;29;20536;-64
2023/05/25 05:09:55;;;;;;;14.68;5.65;;;;;;;;;;4822849;29;20059;-64
2023/05/25 05:12:26;;;;;;;14.60;5.65;;;;;;;;;;4837004;29;20058;-64
2023/05/25 05:14:59;;;;;;;12.40;4.97;;;;;;;;;;4837234;29;20253;-65
2023/05/25 05:17:30;;;;;;;10.90;5.18;;;;;;;;;;4797516;29;20144;-64
2023/05/25 05:20:00;;;;;;;9.88;4.50;;;;;;;;;;4821063;29;20056;-65
2023/05/25 05:22:32;;;;;;;10.40;5.22;;;;;;;;;;4800838;29;20077;-65
2023/05/25 05:25:03;;;;;;;;;;;;;;;;;;4837550;29;20054;-65
2023/05/25 05:27:33;;;;;;;10.27;4.82;;;;;;;;;;4870662;29;19947;-64
2023/05/25 05:30:27;;;;;;;11.32;4.65;;;;;;;;;;4855035;29;20064;-65
2023/05/25 05:32:57;;;;;;;10.48;4.88;;;;;;;;;;4855622;29;20073;-64
2023/05/25 05:35:32;;;;;;;14.65;5.07;;;;;;;;;;4825796;29;20055;-65
2023/05/25 05:38:09;;;;;;;14.88;5.10;;;;;;;;;;4801589;29;20055;-65
2023/05/25 05:40:41;;;;;;;10.48;5.00;;;;;;;;;;4815080;29;20179;-64
2023/05/25 05:43:13;;;;;;;13.68;5.47;;;;;;;;;;4786503;29;20672;-64
2023/05/25 05:45:43;;;;;;;13.05;5.55;;;;;;;;;;4818124;29;20058;-65
2023/05/25 05:48:14;;;;;;;9.65;4.57;;;;;;;;;;4803836;29;20055;-64
2023/05/25 05:50:45;;;;;;;10.52;4.43;;;;;;;;;;4780855;29;20228;-65
2023/05/25 05:53:15;;;;;;;10.07;4.60;;;;;;;;;;4801829;29;20062;-64
2023/05/25 05:55:45;;;;;;;10.00;4.80;;;;;;;;;;4772807;29;20077;-66
2023/05/25 05:58:20;;;;;;;11.52;5.72;;;;;;;;;;4786908;29;20414;-65
2023/05/25 06:00:53;;;;;;;10.43;4.68;;;;;;;;;;4772106;30;20062;-65
2023/05/25 06:03:23;;;;;;;14.40;5.35;;;;;;;;;;4789868;29;20058;-65
2023/05/25 06:05:54;;;;;;;9.40;4.93;;;;;;;;;;4772053;30;20066;-65
2023/05/25 06:08:29;;;;;;;12.10;4.80;;;;;;;;;;4794762;29;20068;-65
2023/05/25 06:11:00;;;;;;;10.10;4.88;;;;;;;;;;4823734;29;20065;-64
2023/05/25 06:13:30;;;;;;;12.55;5.25;;;;;;;;;;4810424;29;20054;-64
2023/05/25 06:16:04;;;;;;;13.15;4.97;;;;;;;;;;4821435;29;20058;-65
2023/05/25 06:18:55;;;;;;;9.27;4.72;;;;;;;;;;4813997;29;20065;-65
2023/05/25 06:21:25;;;;;;;10.65;4.68;;;;;;;;;;4800202;29;20059;-64
2023/05/25 06:24:13;;;;;;;10.57;4.32;;;;;;;;;;4821346;29;20066;-64
2023/05/25 06:26:44;;;;;;;12.60;4.88;;;;;;;;;;4847860;29;20138;-66
2023/05/25 06:29:16;;;;;;;10.82;4.70;;;;;;;;;;4839818;29;20058;-65
2023/05/25 06:31:46;;;;;;;9.90;4.90;;;;;;;;;;4873459;29;20581;-65
2023/05/25 06:34:18;;;;;;;11.10;4.97;;;;;;;;;;4839475;29;20049;-64
2023/05/25 06:36:48;;;;;;;11.75;5.10;;;;;;;;;;4824954;29;20075;-64
2023/05/25 06:39:19;;;;;;;9.63;5.10;;;;;;;;;;4792719;29;20137;-64
2023/05/25 06:41:50;;;;;;;10.45;4.78;;;;;;;;;;4802920;29;20536;-65
2023/05/25 06:44:29;;;;;;;9.23;4.60;;;;;;;;;;4821194;29;20046;-64
2023/05/25 06:47:02;;;;;;;9.55;4.45;;;;;;;;;;4792968;29;20070;-64
2023/05/25 06:49:32;;;;;;;13.65;5.22;;;;;;;;;;4806057;29;20058;-64
2023/05/25 06:52:04;;;;;;;11.80;5.57;;;;;;;;;;4803063;29;20055;-65
2023/05/25 06:54:34;;;;;;;9.95;4.82;;;;;;;;;;4805273;29;20544;-64
2023/05/25 06:57:05;;;;;;;10.40;4.10;;;;;;;;;;4785160;30;20070;-65
2023/05/25 06:59:35;;;;;;;11.10;4.53;;;;;;;;;;4797261;29;20154;-64
2023/05/25 07:02:19;;;;;;;12.52;5.22;;;;;;;;;;4812154;29;20063;-67
2023/05/25 07:04:50;;;;;;;12.50;4.20;;;;;;;;;;4794274;29;20055;-65
2023/05/25 07:07:21;;;;;;;10.02;4.93;;;;;;;;;;4776155;29;20492;-65
2023/05/25 07:09:51;;;;;;;10.15;4.75;;;;;;;;;;4855422;29;20049;-64
2023/05/25 07:12:22;;;;;;;9.65;4.35;;;;;;;;;;4888545;29;20115;-65
2023/05/25 07:14:52;;;;;;;10.82;5.05;;;;;;;;;;4895352;29;20434;-64
2023/05/25 07:17:42;;;;;;;11.70;4.90;;;;;;;;;;4860741;29;20072;-64
2023/05/25 07:20:13;;;;;;;9.63;4.32;;;;;;;;;;4890941;29;20052;-65
2023/05/25 07:22:46;;;;;;;12.35;4.72;;;;;;;;;;4908512;29;20052;-65
2023/05/25 07:25:16;;;;;;;9.82;4.55;;;;;;;;;;4882446;29;20064;-64
2023/05/25 07:27:53;;;;;;;11.02;5.40;;;;;;;;;;4925837;29;20063;-64
2023/05/25 07:30:23;;;;;;;9.10;4.03;;;;;;;;;;4951522;29;20059;-64
2023/05/25 07:32:54;;;;;;;11.48;4.63;;;;;;;;;;4951973;29;20055;-65
2023/05/25 07:35:25;;;;;;;10.18;4.18;;;;;;;;;;4951580;29;20059;-64
2023/05/25 07:38:00;;;;;;;8.48;4.25;;;;;;;;;;4970806;28;20053;-64
2023/05/25 07:40:30;;;;;;;10.13;4.65;;;;;;;;;;4955204;28;20055;-64
2023/05/25 07:43:00;;;;;;;13.50;4.50;;;;;;;;;;4922916;28;20058;-64
2023/05/25 07:45:30;;;;;;;11.35;4.60;;;;;;;;;;4955095;28;20058;-67
2023/05/25 07:48:00;;;;;;;12.75;5.00;;;;;;;;;;4939182;28;20050;-65
2023/05/25 07:50:31;;;;;;;13.38;4.75;;;;;;;;;;4970599;28;20138;-65
2023/05/25 07:53:01;;;;;;;9.88;4.90;;;;;;;;;;4970906;28;20054;-64
2023/05/25 07:55:32;;;;;;;9.75;4.30;;;;;;;;;;4981978;28;20375;-64
2023/05/25 07:58:02;;;;;;;10.75;4.88;;;;;;;;;;4989976;28;20118;-64
2023/05/25 08:00:33;;;;;;;10.18;4.22;;;;;;;;;;4915862;29;20055;-64
2023/05/25 08:03:03;;;;;;;9.98;4.70;;;;;;;;;;4931954;29;20051;-64
2023/05/25 08:05:34;;;;;;;11.32;4.50;;;;;;;;;;4932029;29;20135;-64
2023/05/25 08:08:05;;;;;;;9.68;4.38;;;;;;;;;;4931199;29;20060;-64
2023/05/25 08:10:35;;;;;;;11.02;4.30;;;;;;;;;;4931347;29;20048;-64
2023/05/25 08:13:05;;;;;;;11.57;4.63;;;;;;;;;;4931892;29;20058;-63
2023/05/25 08:15:36;;;;;;;11.93;4.47;;;;;;;;;;4894048;29;20059;-66
2023/05/25 08:18:09;;;;;;;9.85;4.40;;;;;;;;;;4950940;29;20055;-64
2023/05/25 08:21:01;;;;;;;9.35;4.43;;;;;;;;;;4912504;29;20064;-65
2023/05/25 08:23:31;;;;;;;8.63;4.20;;;;;;;;;;4912908;29;20556;-65
2023/05/25 08:26:01;;;;;;;9.15;4.65;;;;;;;;;;4912573;29;20059;-64
2023/05/25 08:28:54;;;;;;;7.85;3.80;;;;;;;;;;4850336;29;20514;-65
2023/05/25 08:31:25;;;;;;;9.07;4.28;;;;;;;;;;4890261;29;20079;-65
2023/05/25 08:33:55;;;;;;;12.75;4.82;;;;;;;;;;4874806;29;20136;-65
2023/05/25 08:36:26;;;;;;;12.40;4.78;;;;;;;;;;4874926;29;20057;-64
2023/05/25 08:38:56;;;;;;;9.18;4.45;;;;;;;;;;4906032;29;20509;-64
2023/05/25 08:41:28;;;;;;;12.05;4.90;;;;;;;;;;4893225;29;20069;-64
2023/05/25 08:44:04;;;;;;;13.02;4.25;;;;;;;;;;4847357;29;20059;-64
2023/05/25 08:46:35;;;;;;;9.60;4.60;;;;;;;;;;4908565;29;20056;-64
2023/05/25 08:49:26;;;;;;;8.27;4.03;;;;;;;;;;4893151;29;20060;-66
2023/05/25 08:51:57;;;;;;;10.25;4.88;;;;;;;;;;4918050;29;20059;-65
2023/05/25 08:54:37;;;;;;;8.90;4.68;;;;;;;;;;4902393;29;20058;-65
2023/05/25 08:57:16;;;;;;;9.38;4.20;;;;;;;;;;4877939;29;20410;-65
2023/05/25 08:59:48;;;;;;;;;;;;;;;;;;4893223;29;20052;-65
2023/05/25 09:02:52;;;;;;;10.50;4.35;;;;;;;;;;4847246;29;19923;-65
2023/05/25 09:05:23;;;;;;;10.57;4.15;;;;;;;;;;4895101;29;20053;-65
2023/05/25 09:07:55;;;;;;;7.90;3.83;;;;;;;;;;4915086;29;20056;-66
2023/05/25 09:10:28;;;;;;;9.77;4.13;;;;;;;;;;4946744;29;20054;-64
2023/05/25 09:12:58;;;;;;;8.63;3.97;;;;;;;;;;4945186;29;20056;-65
2023/05/25 09:15:48;;;;;;;8.70;4.63;;;;;;;;;;4931001;29;20535;-65
2023/05/25 09:18:19;;;;;;;11.90;5.32;;;;;;;;;;4931866;29;20059;-65
2023/05/25 09:21:09;;;;;;;10.23;4.78;;;;;;;;;;4915488;29;20044;-64
2023/05/25 09:23:40;;;;;;;9.52;4.88;;;;;;;;;;4910992;29;20681;-65
2023/05/25 09:26:11;;;;;;;10.80;4.65;;;;;;;;;;4899811;29;20055;-65
2023/05/25 09:28:48;;;;;;;9.02;4.55;;;;;;;;;;4915933;29;20060;-65
2023/05/25 09:31:18;;;;;;;9.68;3.92;;;;;;;;;;4915762;29;20048;-65
2023/05/25 09:33:48;;;;;;;9.32;4.20;;;;;;;;;;4896941;29;20094;-65
2023/05/25 09:36:20;;;;;;;11.25;4.55;;;;;;;;;;4899476;29;20060;-64
2023/05/25 09:38:55;;;;;;;9.50;4.15;;;;;;;;;;4915939;29;20530;-64
2023/05/25 09:41:28;;;;;;;9.23;4.10;;;;;;;;;;4896686;29;20057;-64
2023/05/25 09:43:58;;;;;;;8.77;4.20;;;;;;;;;;4912414;29;20064;-64
2023/05/25 09:46:40;;;;;;;9.80;4.25;;;;;;;;;;4865207;29;20409;-64
2023/05/25 09:49:30;;;;;;;9.50;4.70;;;;;;;;;;4915431;29;20052;-65
2023/05/25 09:52:00;;;;;;;12.10;4.70;;;;;;;;;;4899057;29;20175;-64
2023/05/25 09:54:32;;;;;;;9.15;4.32;;;;;;;;;;4915067;29;20060;-64
2023/05/25 09:57:04;;;;;;;12.00;4.65;;;;;;;;;;4915103;29;20055;-63
2023/05/25 09:59:34;;;;;;;9.30;4.60;;;;;;;;;;4931723;29;20365;-63
2023/05/25 10:02:05;;;;;;;12.52;5.20;;;;;;;;;;4905304;29;20058;-64
2023/05/25 10:04:36;;;;;;;10.50;4.70;;;;;;;;;;4953321;28;20063;-66
2023/05/25 10:07:07;;;;;;;9.25;4.95;;;;;;;;;;4953111;28;20051;-63
2023/05/25 10:09:42;;;;;;;9.70;4.45;;;;;;;;;;4914406;29;20067;-63
2023/05/25 10:12:17;;;;;;;13.23;4.55;;;;;;;;;;4892108;29;20056;-63
2023/05/25 10:14:50;;;;;;;10.48;4.90;;;;;;;;;;4895973;29;20064;-63
2023/05/25 10:17:38;;;;;;;19.92;4.97;;;;;;;;;;4907681;29;20057;-64
2023/05/25 10:20:10;;;;;;;11.57;5.35;;;;;;;;;;4914332;29;20056;-63
2023/05/25 10:22:50;;;;;;;9.82;4.88;;;;;;;;;;4914662;29;20048;-63
2023/05/25 10:25:31;;;;;;;16.98;6.20;;;;;;;;;;4946155;29;20056;-63
2023/05/25 10:28:06;;;;;;;10.93;4.75;;;;;;;;;;4930126;29;20075;-63
2023/05/25 10:30:40;;;;;;;8.00;4.32;;;;;;;;;;4913934;29;20075;-63
2023/05/25 10:33:11;;;;;;;11.57;4.88;;;;;;;;;;4897990;29;20168;-65
2023/05/25 10:35:43;;;;;;;9.43;4.50;;;;;;;;;;4879770;29;20056;-63
2023/05/25 10:38:34;;;;;;;11.70;5.68;;;;;;;;;;4911038;29;20064;-63
2023/05/25 10:41:05;;;;;;;12.50;4.82;;;;;;;;;;4895666;29;20056;-63
2023/05/25 10:43:37;;;;;;;11.25;4.88;;;;;;;;;;4895323;29;20049;-63
2023/05/25 10:46:07;;;;;;;11.35;4.60;;;;;;;;;;4896204;29;20053;-63
2023/05/25 10:48:39;;;;;;;10.27;6.00;;;;;;;;;;4914293;29;20048;-66
2023/05/25 10:51:10;;;;;;;14.02;4.63;;;;;;;;;;4933103;29;20047;-63
2023/05/25 10:53:57;;;;;;;10.75;4.95;;;;;;;;;;4932997;29;20059;-63
2023/05/25 10:56:30;;;;;;;11.10;4.57;;;;;;;;;;4952084;29;20051;-61
2023/05/25 10:59:00;;;;;;;17.10;7.30;;;;;;;;;;4932973;29;20401;-63
2023/05/25 11:01:32;;;;;;;;;;;;;;;;;;4902286;29;20051;-63
2023/05/25 11:04:11;;;;;;;13.43;5.97;;;;;;;;;;4932701;29;19930;-63
2023/05/25 11:06:45;;;;;;;16.77;6.18;;;;;;;;;;4931670;29;20051;-63
2023/05/25 11:09:27;;;;;;;12.75;5.97;;;;;;;;;;4921425;29;20475;-64
2023/05/25 11:12:00;;;;;;;13.73;6.15;;;;;;;;;;4926755;29;20424;-63
2023/05/25 11:14:41;;;;;;;13.68;6.65;;;;;;;;;;4933729;29;20551;-63
2023/05/25 11:17:31;;;;;;;16.52;7.18;;;;;;;;;;4941109;29;20058;-63
2023/05/25 11:20:05;;;;;;;16.63;6.25;;;;;;;;;;4950306;29;20051;-64
2023/05/25 11:22:51;;;;;;;17.98;6.18;;;;;;;;;;4977491;28;20058;-63
2023/05/25 11:25:38;;;;;;;18.23;6.18;;;;;;;;;;4942210;28;20661;-63
2023/05/25 11:28:10;;;;;;;10.20;5.03;;;;;;;;;;4973081;28;20057;-63
2023/05/25 11:30:41;;;;;;;13.73;5.40;;;;;;;;;;4940346;28;20502;-63
2023/05/25 11:33:12;;;;;;;15.95;5.50;;;;;;;;;;4994879;28;20050;-62
2023/05/25 11:35:44;;;;;;;11.88;5.20;;;;;;;;;;4990211;28;20046;-65
2023/05/25 11:38:14;;;;;;;10.60;6.05;;;;;;;;;;4973952;28;20073;-65
2023/05/25 11:40:44;;;;;;;12.38;5.47;;;;;;;;;;4973552;28;20501;-64
2023/05/25 11:43:28;;;;;;;10.13;4.90;;;;;;;;;;4988634;28;20057;-63
2023/05/25 11:46:01;;;;;;;11.60;5.63;;;;;;;;;;4957188;28;20061;-64
2023/05/25 11:48:50;;;;;;;11.70;4.90;;;;;;;;;;4984511;28;20053;-65
2023/05/25 11:51:25;;;;;;;11.00;5.50;;;;;;;;;;4971773;28;20431;-63
2023/05/25 11:53:56;;;;;;;11.25;5.20;;;;;;;;;;4931599;28;20451;-65
2023/05/25 11:56:30;;;;;;;9.60;5.53;;;;;;;;;;4969511;28;20043;-63
2023/05/25 11:59:07;;;;;;;10.02;4.82;;;;;;;;;;4953853;28;20062;-64
2023/05/25 12:01:37;;;;;;;11.15;4.65;;;;;;;;;;4969854;28;20538;-64
2023/05/25 12:04:11;;;;;;;12.50;5.82;;;;;;;;;;4970239;28;20059;-63
2023/05/25 12:06:41;;;;;;;12.35;6.90;;;;;;;;;;4970258;28;20522;-63
2023/05/25 12:09:12;;;;;;;13.07;6.32;;;;;;;;;;4970103;28;20437;-64
2023/05/25 12:11:44;;;;;;;16.80;7.88;;;;;;;;;;4937940;28;20047;-63
2023/05/25 12:14:15;;;;;;;17.15;9.27;;;;;;;;;;4938262;28;20059;-63
2023/05/25 12:16:47;;;;;;;20.38;9.63;;;;;;;;;;4954104;28;20047;-64
2023/05/25 12:19:18;;;;;;;21.52;10.27;;;;;;;;;;4970239;28;20066;-64
2023/05/25 12:21:50;;;;;;;19.02;10.73;;;;;;;;;;4969946;28;20062;-63
2023/05/25 12:24:40;;;;;;;26.90;11.20;;;;;;;;;;4931476;29;20094;-62
2023/05/25 12:27:17;;;;;;;23.10;10.60;;;;;;;;;;4931600;29;20060;-63
2023/05/25 12:29:49;;;;;;;31.88;12.15;;;;;;;;;;4909072;29;20055;-64
2023/05/25 12:32:19;;;;;;;25.83;9.77;;;;;;;;;;4930123;29;20052;-65
2023/05/25 12:34:49;;;;;;;24.73;8.82;;;;;;;;;;4946944;29;20164;-63
2023/05/25 12:37:21;;;;;;;27.02;10.00;;;;;;;;;;4950576;29;20532;-64
2023/05/25 12:39:52;;;;;;;15.98;6.35;;;;;;;;;;4947403;29;20043;-63
2023/05/25 12:42:28;;;;;;;23.55;9.95;;;;;;;;;;4907880;29;20063;-63
2023/05/25 12:45:00;;;;;;;20.90;8.35;;;;;;;;;;4925734;29;20077;-63
2023/05/25 12:47:31;;;;;;;14.07;6.28;;;;;;;;;;4926117;29;20427;-64
2023/05/25 12:50:12;;;;;;;11.40;4.93;;;;;;;;;;4930702;29;20047;-63
2023/05/25 12:52:45;;;;;;;11.93;4.40;;;;;;;;;;4914932;29;20054;-63
2023/05/25 12:55:27;;;;;;;8.02;3.03;;;;;;;;;;4931081;29;20483;-64
2023/05/25 12:58:01;;;;;;;8.80;3.80;;;;;;;;;;4931241;29;20052;-63
2023/05/25 13:00:37;;;;;;;8.13;3.50;;;;;;;;;;4915562;29;20060;-63
2023/05/25 13:03:27;;;;;;;12.50;4.15;;;;;;;;;;4960384;28;20078;-65
2023/05/25 13:06:01;;;;;;;7.10;3.10;;;;;;;;;;4934655;29;20059;-63
2023/05/25 13:08:31;;;;;;;6.28;2.90;;;;;;;;;;4930560;28;20054;-63
2023/05/25 13:11:02;;;;;;;9.15;2.35;;;;;;;;;;4975657;28;20499;-64
2023/05/25 13:13:32;;;;;;;7.22;3.00;;;;;;;;;;4921586;28;20059;-64
2023/05/25 13:16:02;;;;;;;7.55;2.13;;;;;;;;;;4937370;28;20066;-64
2023/05/25 13:18:52;;;;;;;6.68;2.47;;;;;;;;;;4949619;28;20047;-65
2023/05/25 13:21:23;;;;;;;6.40;2.53;;;;;;;;;;4949781;28;20504;-63
2023/05/25 13:23:53;;;;;;;5.60;2.53;;;;;;;;;;4949654;28;20063;-63
2023/05/25 13:26:24;;;;;;;5.22;2.42;;;;;;;;;;4950294;28;20050;-63
2023/05/25 13:28:54;;;;;;;7.35;2.60;;;;;;;;;;4937364;28;20051;-63
2023/05/25 13:31:26;;;;;;;5.18;2.25;;;;;;;;;;4973166;28;20054;-63
2023/05/25 13:33:59;;;;;;;5.40;2.15;;;;;;;;;;4957940;28;20053;-63
2023/05/25 13:36:31;;;;;;;4.47;2.20;;;;;;;;;;4969131;28;20051;-62
2023/05/25 13:39:04;;;;;;;4.50;2.30;;;;;;;;;;4977984;28;20042;-64
2023/05/25 13:41:34;;;;;;;5.75;2.10;;;;;;;;;;4937176;28;20061;-64
2023/05/25 13:44:04;;;;;;;4.05;2.20;;;;;;;;;;5007963;28;20062;-62
2023/05/25 13:46:36;;;;;;;5.30;2.05;;;;;;;;;;5008211;28;20042;-63
2023/05/25 13:49:06;;;;;;;5.53;2.10;;;;;;;;;;4993382;28;20062;-63
2023/05/25 13:51:37;;;;;;;4.35;2.03;;;;;;;;;;4964132;28;20042;-62
2023/05/25 13:54:07;;;;;;;4.68;2.17;;;;;;;;;;4998321;28;20042;-62
2023/05/25 13:56:38;;;;;;;8.27;2.22;;;;;;;;;;4956118;28;20061;-63
2023/05/25 13:59:09;;;;;;;5.60;2.00;;;;;;;;;;5002676;28;20061;-64
2023/05/25 14:01:39;;;;;;;4.10;1.80;;;;;;;;;;4960521;28;20053;-63
2023/05/25 14:04:13;;;;;;;4.75;1.90;;;;;;;;;;5001080;28;20042;-62
2023/05/25 14:06:43;;;;;;;5.82;2.10;;;;;;;;;;4985272;28;20080;-63
2023/05/25 14:09:15;;;;;;;3.88;1.80;;;;;;;;;;5009895;28;20050;-62
2023/05/25 14:11:45;;;;;;;6.15;1.80;;;;;;;;;;5007997;28;20054;-62
2023/05/25 14:14:15;;;;;;;4.10;1.67;;;;;;;;;;4978765;28;20061;-63
2023/05/25 14:16:59;;;;;;;4.78;1.50;;;;;;;;;;5004021;28;20042;-62
2023/05/25 14:19:30;;;;;;;4.68;1.77;;;;;;;;;;5002714;28;20502;-63
2023/05/25 14:22:00;;;;;;;4.80;1.92;;;;;;;;;;5005034;28;20072;-63
2023/05/25 14:24:42;;;;;;;3.60;1.60;;;;;;;;;;5009190;28;20430;-63
2023/05/25 14:27:14;;;;;;;6.70;2.13;;;;;;;;;;5010929;28;20046;-62
2023/05/25 14:29:45;;;;;;;3.85;2.17;;;;;;;;;;5002852;28;20054;-63
2023/05/25 14:32:15;;;;;;;3.92;1.90;;;;;;;;;;4991150;28;20069;-63
2023/05/25 14:34:46;;;;;;;4.40;1.75;;;;;;;;;;4951656;29;20054;-64
2023/05/25 14:37:16;;;;;;;5.53;2.10;;;;;;;;;;4904573;29;20550;-63
2023/05/25 14:39:47;;;;;;;4.30;1.77;;;;;;;;;;4924339;29;20527;-63
2023/05/25 14:42:17;;;;;;;9.05;2.40;;;;;;;;;;4962100;28;20464;-65
2023/05/25 14:44:47;;;;;;;4.40;1.30;;;;;;;;;;4946876;28;20511;-65
2023/05/25 14:47:17;;;;;;;4.25;1.63;;;;;;;;;;4968498;28;20050;-64
2023/05/25 14:49:48;;;;;;;5.07;1.48;;;;;;;;;;4951298;28;20046;-66
2023/05/25 14:52:18;;;;;;;4.57;1.40;;;;;;;;;;4970849;28;20422;-64
2023/05/25 14:55:21;;;;;;;3.03;1.25;;;;;;;;;;4941032;29;20179;-64
2023/05/25 14:57:51;;;;;;;5.03;2.22;;;;;;;;;;4968024;28;20059;-65
2023/05/25 15:00:43;;;;;;;3.97;1.63;;;;;;;;;;4908713;29;20052;-64
2023/05/25 15:03:13;;;;;;;4.97;1.25;;;;;;;;;;4932077;29;20044;-63
2023/05/25 15:05:45;;;;;;;6.40;1.63;;;;;;;;;;4916789;29;20063;-64
2023/05/25 15:08:15;;;;;;;4.00;1.58;;;;;;;;;;4916495;29;20067;-64
2023/05/25 15:10:48;;;;;;;6.10;1.70;;;;;;;;;;4916708;29;20103;-63
2023/05/25 15:13:21;;;;;;;3.63;1.67;;;;;;;;;;4916696;29;20052;-64
2023/05/25 15:15:54;;;;;;;4.25;1.40;;;;;;;;;;4932636;29;20054;-63
2023/05/25 15:18:45;;;;;;;6.72;1.58;;;;;;;;;;4913309;29;20052;-63